Time;durP1;ratioP1;P1;durP2;ratioP2;P2;SDS_P1;SDS_P2;PMS_P1;PMS_P2;Temp;Humidity;BMP_temperature;BMP_pressure;BME280_temperature;BME280_humidity;BME280_pressure;Samples;Min_cycle;Max_cycle;Signal;HPM_P1;HPM_P2
2022/01/20 00:00:13;;;;;;;20.92;2.20;;;3.30;99.90;;;;;;6258743;22;20094;-85
2022/01/20 00:03:16;;;;;;;22.60;2.45;;;3.20;99.90;;;;;;6242190;22;20015;-85
2022/01/20 00:29:01;;;;;;;33.97;3.25;;;3.50;99.90;;;;;;6268150;22;20327;-85
2022/01/20 00:31:41;;;;;;;18.63;2.65;;;3.50;99.90;;;;;;6220563;22;20099;-85
2022/01/20 00:34:52;;;;;;;23.83;2.85;;;3.50;99.90;;;;;;6243532;22;20026;-83
2022/01/20 00:37:37;;;;;;;21.95;2.60;;;3.50;99.90;;;;;;6250871;22;20016;-83
2022/01/20 00:40:14;;;;;;;16.83;2.50;;;3.60;99.90;;;;;;6220011;22;20011;-86
2022/01/20 00:43:05;;;;;;;24.83;2.50;;;3.60;99.90;;;;;;6192273;22;20011;-85
2022/01/20 00:45:57;;;;;;;18.90;2.10;;;3.60;99.90;;;;;;6243107;22;20011;-85
2022/01/20 00:49:02;;;;;;;30.67;3.03;;;3.60;99.90;;;;;;6227678;22;20088;-84
2022/01/20 00:51:48;;;;;;;27.08;2.65;;;3.50;99.90;;;;;;6094378;23;20564;-86
2022/01/20 00:56:52;;;;;;;24.70;2.72;;;3.50;99.90;;;;;;6298449;22;20360;-83
2022/01/20 00:59:51;;;;;;;30.10;2.70;;;3.40;99.90;;;;;;6243659;22;20143;-83
2022/01/20 01:06:02;;;;;;;24.23;2.33;;;3.30;99.90;;;;;;6237494;22;20019;-84
2022/01/20 01:12:41;;;;;;;22.42;1.67;;;3.30;99.90;;;;;;6128851;23;20014;-86
2022/01/20 01:22:31;;;;;;;18.23;2.00;;;3.10;99.90;;;;;;6295061;22;20026;-85
2022/01/20 01:47:40;;;;;;;32.42;2.50;;;3.30;99.90;;;;;;6020350;23;20052;-86
2022/01/20 01:50:07;;;;;;;28.25;2.42;;;3.30;99.90;;;;;;6089041;23;20104;-85
2022/01/20 01:57:09;;;;;;;13.15;1.73;;;3.50;99.90;;;;;;5998674;23;20474;-84
2022/01/20 01:59:51;;;;;;;18.15;1.52;;;3.50;99.90;;;;;;5970644;23;20015;-85
2022/01/20 02:03:01;;;;;;;17.13;1.65;;;3.30;99.90;;;;;;6087722;23;20072;-85
2022/01/20 02:06:27;;;;;;;10.27;1.23;;;3.40;99.90;;;;;;6113094;23;20092;-85
2022/01/20 02:20:47;;;;;;;16.08;1.58;;;3.10;99.90;;;;;;6237275;22;20020;-85
2022/01/20 02:24:11;;;;;;;15.18;2.28;;;3.10;99.90;;;;;;6209522;22;20411;-85
2022/01/20 02:27:19;;;;;;;12.18;1.15;;;3.10;99.90;;;;;;6237859;22;20229;-86
2022/01/20 02:31:32;;;;;;;17.40;1.67;;;3.10;99.90;;;;;;6215654;22;20043;-85
2022/01/20 02:33:34;;;;;;;12.57;1.23;;;3.10;99.90;;;;;;6220992;22;20577;-82
2022/01/20 02:36:11;;;;;;;10.32;1.20;;;3.20;99.90;;;;;;6217940;22;20461;-84
2022/01/20 02:38:49;;;;;;;9.70;1.20;;;3.20;99.90;;;;;;6193895;22;20020;-83
2022/01/20 02:47:34;;;;;;;17.10;2.17;;;3.40;99.90;;;;;;6267758;22;20045;-85
2022/01/20 02:50:01;;;;;;;16.58;1.50;;;3.40;99.90;;;;;;6216269;22;20015;-85
2022/01/20 02:52:30;;;;;;;15.82;1.48;;;3.50;99.90;;;;;;6216523;22;20012;-85
2022/01/20 02:55:08;;;;;;;10.00;1.70;;;3.40;99.90;;;;;;6215868;22;20012;-85
2022/01/20 02:57:34;;;;;;;20.17;2.25;;;3.40;99.90;;;;;;6216923;22;20015;-83
2022/01/20 03:00:19;;;;;;;22.13;2.40;;;3.40;99.90;;;;;;6190733;22;20018;-85
2022/01/20 03:02:58;;;;;;;18.30;1.73;;;3.40;99.90;;;;;;6214283;22;20015;-84
2022/01/20 03:05:30;;;;;;;19.20;2.58;;;3.30;99.90;;;;;;6213685;22;20016;-85
2022/01/20 03:07:56;;;;;;;23.67;2.10;;;3.30;99.90;;;;;;6215027;22;20012;-84
2022/01/20 03:10:41;;;;;;;12.82;1.75;;;3.30;99.90;;;;;;6213956;22;20019;-86
2022/01/20 03:13:10;;;;;;;24.63;2.22;;;3.20;99.90;;;;;;6215074;22;20008;-83
2022/01/20 03:15:39;;;;;;;17.35;2.28;;;3.20;99.90;;;;;;6188559;22;20042;-84
2022/01/20 03:18:05;;;;;;;21.83;2.25;;;3.20;99.90;;;;;;6239316;22;20023;-84
2022/01/20 03:20:34;;;;;;;24.73;2.25;;;3.20;99.90;;;;;;6213594;22;20299;-84
2022/01/20 03:23:03;;;;;;;21.92;1.95;;;3.20;99.90;;;;;;6213565;22;20098;-84
2022/01/20 03:25:29;;;;;;;22.52;2.13;;;3.10;99.90;;;;;;6214402;22;20440;-84
2022/01/20 03:28:04;;;;;;;23.73;3.10;;;3.20;99.90;;;;;;6239867;22;20034;-85
2022/01/20 03:30:30;;;;;;;21.00;2.65;;;3.20;99.90;;;;;;6216239;22;20336;-82
2022/01/20 03:32:56;;;;;;;21.15;2.58;;;3.10;99.90;;;;;;6193105;22;20095;-86
2022/01/20 03:35:28;;;;;;;24.95;3.05;;;3.10;99.90;;;;;;6214193;22;20019;-84
2022/01/20 03:37:54;;;;;;;19.25;3.50;;;3.20;99.90;;;;;;6214794;22;20039;-84
2022/01/20 03:40:50;;;;;;;30.27;3.80;;;3.20;99.90;;;;;;6189207;22;20142;-86
2022/01/20 03:43:29;;;;;;;22.63;3.05;;;3.20;99.90;;;;;;6188721;22;20016;-84
2022/01/20 03:46:17;;;;;;;30.45;3.60;;;3.20;99.90;;;;;;6213313;22;20448;-86
2022/01/20 03:52:08;;;;;;;26.33;3.65;;;3.10;99.90;;;;;;6225320;22;20342;-84
2022/01/20 03:54:36;;;;;;;32.88;3.08;;;3.10;99.90;;;;;;6222773;22;20023;-84
2022/01/20 03:57:02;;;;;;;25.70;3.80;;;3.10;99.90;;;;;;6223956;22;20023;-83
2022/01/20 03:59:52;;;;;;;30.17;3.53;;;3.10;99.90;;;;;;6217842;22;20015;-85
2022/01/20 04:02:31;;;;;;;28.23;3.72;;;3.10;99.90;;;;;;6233869;22;20065;-84
2022/01/20 04:05:12;;;;;;;33.78;3.75;;;3.10;99.90;;;;;;6220776;22;20015;-85
2022/01/20 04:07:50;;;;;;;29.02;3.55;;;3.10;99.90;;;;;;6220713;22;20022;-84
2022/01/20 04:10:18;;;;;;;28.65;3.90;;;3.10;99.90;;;;;;6218289;22;20125;-85
2022/01/20 04:12:51;;;;;;;27.45;3.97;;;3.10;99.90;;;;;;6219451;22;20021;-85
2022/01/20 04:15:28;;;;;;;34.90;3.75;;;3.10;99.90;;;;;;6219058;22;20008;-83
2022/01/20 04:18:01;;;;;;;15.57;2.58;;;3.10;99.90;;;;;;6242946;22;20011;-84
2022/01/20 04:20:33;;;;;;;18.25;2.78;;;3.00;99.90;;;;;;6218813;22;20464;-85
2022/01/20 04:23:08;;;;;;;20.03;3.37;;;3.10;99.90;;;;;;6242987;22;20578;-85
2022/01/20 04:25:55;;;;;;;20.38;2.53;;;3.00;99.90;;;;;;6220538;22;20329;-82
2022/01/20 04:28:27;;;;;;;21.58;3.17;;;3.00;99.90;;;;;;6244346;22;20034;-84
2022/01/20 04:31:01;;;;;;;16.52;2.67;;;2.90;99.90;;;;;;6219446;22;20389;-84
2022/01/20 04:33:30;;;;;;;15.82;2.70;;;2.90;99.90;;;;;;6243222;22;20531;-83
2022/01/20 04:35:56;;;;;;;24.20;2.55;;;2.80;99.90;;;;;;6218190;22;20015;-82
2022/01/20 04:38:22;;;;;;;22.27;2.15;;;2.70;99.90;;;;;;6218341;22;20018;-83
2022/01/20 04:41:20;;;;;;;15.32;2.00;;;2.70;99.90;;;;;;6243196;22;20015;-84
2022/01/20 04:43:50;;;;;;;20.27;2.47;;;2.70;99.90;;;;;;6220713;22;20019;-85
2022/01/20 04:46:34;;;;;;;32.05;2.88;;;2.60;99.90;;;;;;6218118;22;20019;-83
2022/01/20 04:58:29;;;;;;;14.85;2.25;;;2.40;99.90;;;;;;6059552;23;20058;-83
2022/01/20 05:01:11;;;;;;;19.60;2.17;;;2.40;99.90;;;;;;6112355;23;20075;-85
2022/01/20 05:03:54;;;;;;;17.48;2.30;;;2.40;99.90;;;;;;6199341;23;20020;-84
2022/01/20 05:07:18;;;;;;;;;;;;;;;;;;;;;
2022/01/20 05:14:17;;;;;;;23.20;2.63;;;2.40;99.90;;;;;;6091517;23;20046;-92
2022/01/20 05:20:31;;;;;;;17.02;2.15;;;2.30;99.90;;;;;;6268838;22;20080;-83
2022/01/20 05:23:05;;;;;;;21.73;2.92;;;2.30;99.90;;;;;;6217807;22;20016;-84
2022/01/20 05:25:34;;;;;;;19.15;2.50;;;2.20;99.90;;;;;;6202896;22;20037;-84
2022/01/20 05:28:05;;;;;;;13.23;2.22;;;2.30;99.90;;;;;;6246716;22;20452;-83
2022/01/20 05:30:47;;;;;;;21.27;2.40;;;2.20;99.90;;;;;;6243839;22;20120;-84
2022/01/20 05:33:15;;;;;;;20.27;2.17;;;2.20;99.90;;;;;;6244307;22;20095;-84
2022/01/20 05:35:50;;;;;;;14.80;2.45;;;2.20;99.90;;;;;;6270226;22;20016;-85
2022/01/20 05:38:20;;;;;;;20.05;2.78;;;2.20;99.90;;;;;;6218161;22;20012;-84
2022/01/20 05:40:46;;;;;;;21.67;3.03;;;2.30;99.90;;;;;;6195052;22;20022;-85
2022/01/20 05:43:13;;;;;;;18.75;2.65;;;2.40;99.90;;;;;;6220060;22;20015;-83
2022/01/20 05:45:39;;;;;;;15.85;2.10;;;2.40;99.90;;;;;;6171974;23;20099;-84
2022/01/20 05:48:17;;;;;;;13.98;1.55;;;2.40;99.90;;;;;;6209410;23;20012;-85
2022/01/20 05:50:44;;;;;;;11.75;1.58;;;2.40;99.90;;;;;;6159164;23;20016;-85
2022/01/20 05:53:12;;;;;;;11.75;1.70;;;2.40;99.90;;;;;;6183736;23;20349;-83
2022/01/20 05:55:59;;;;;;;8.93;1.30;;;2.30;99.90;;;;;;6151184;23;20027;-86
2022/01/20 05:58:47;;;;;;;11.65;1.52;;;2.30;99.90;;;;;;6177136;23;20086;-86
2022/01/20 06:01:38;;;;;;;17.23;2.05;;;2.20;99.90;;;;;;6152241;23;20529;-84
2022/01/20 06:04:49;;;;;;;9.38;1.35;;;2.20;99.90;;;;;;6175800;23;20027;-86
2022/01/20 06:17:27;;;;;;;16.73;2.05;;;1.90;99.90;;;;;;6233701;23;20051;-86
2022/01/20 06:23:50;;;;;;;14.70;2.00;;;1.70;99.90;;;;;;6103567;23;20028;-84
2022/01/20 06:26:19;;;;;;;21.65;2.97;;;1.70;99.90;;;;;;6157798;23;20530;-87
2022/01/20 06:28:55;;;;;;;25.73;2.75;;;1.70;99.90;;;;;;6179368;23;20016;-86
2022/01/20 06:31:24;;;;;;;23.05;2.33;;;1.80;99.90;;;;;;6184150;23;20450;-87
2022/01/20 06:34:07;;;;;;;21.50;2.63;;;1.90;99.90;;;;;;6181264;23;20016;-87
2022/01/20 06:36:33;;;;;;;16.88;2.25;;;1.90;99.90;;;;;;6182113;23;20083;-86
2022/01/20 06:39:29;;;;;;;22.33;2.30;;;2.00;99.90;;;;;;6158852;23;20460;-87
2022/01/20 06:42:29;;;;;;;;;;;;;;;;;;;;;
2022/01/20 06:45:43;;;;;;;27.48;2.80;;;1.90;99.90;;;;;;6109792;23;20014;-88
2022/01/20 06:49:18;;;;;;;22.80;2.47;;;1.80;99.90;;;;;;6083432;23;20395;-87
2022/01/20 06:52:33;;;;;;;23.83;2.70;;;1.70;99.90;;;;;;6011308;23;20019;-88
2022/01/20 06:55:16;;;;;;;22.83;2.70;;;1.70;99.90;;;;;;6037665;23;20058;-86
2022/01/20 06:58:29;;;;;;;24.77;3.00;;;1.70;99.90;;;;;;6037567;23;20054;-89
2022/01/20 07:00:55;;;;;;;28.27;3.50;;;1.70;99.90;;;;;;6030636;23;20018;-86
2022/01/20 07:03:23;;;;;;;21.98;2.80;;;1.80;99.90;;;;;;6011516;23;20022;-85
2022/01/20 07:05:49;;;;;;;21.40;2.00;;;1.90;99.90;;;;;;6035007;23;20121;-84
2022/01/20 07:08:18;;;;;;;17.17;2.10;;;2.00;99.90;;;;;;6168730;23;20012;-87
2022/01/20 07:10:44;;;;;;;16.30;1.60;;;1.90;99.90;;;;;;6181073;23;20459;-87
2022/01/20 07:13:30;;;;;;;15.65;2.10;;;1.90;99.90;;;;;;6137471;23;20336;-89
2022/01/20 07:15:59;;;;;;;10.63;1.88;;;1.80;99.90;;;;;;6180464;23;20086;-86
2022/01/20 07:18:24;;;;;;;19.08;1.85;;;1.80;99.90;;;;;;6159359;23;20519;-86
2022/01/20 07:20:53;;;;;;;18.27;2.38;;;1.70;99.90;;;;;;6135685;23;20020;-85
2022/01/20 07:23:22;;;;;;;13.35;1.90;;;1.70;99.90;;;;;;6159436;23;20020;-85
2022/01/20 07:25:48;;;;;;;18.65;4.15;;;1.70;99.90;;;;;;6135999;23;20070;-85
2022/01/20 07:28:29;;;;;;;16.60;2.53;;;1.60;99.90;;;;;;6160750;23;20776;-87
2022/01/20 07:30:55;;;;;;;14.70;2.88;;;1.70;99.90;;;;;;6160812;23;20022;-85
2022/01/20 07:33:21;;;;;;;15.45;2.00;;;1.70;99.90;;;;;;6133107;23;20008;-84
2022/01/20 07:35:56;;;;;;;20.98;2.78;;;1.60;99.90;;;;;;6162092;23;20016;-86
2022/01/20 07:38:24;;;;;;;16.83;1.77;;;1.70;99.90;;;;;;6181921;23;20195;-84
2022/01/20 07:40:51;;;;;;;23.45;2.15;;;1.70;99.90;;;;;;6160231;23;20020;-84
2022/01/20 07:43:17;;;;;;;14.65;2.42;;;1.70;99.90;;;;;;6180009;23;20046;-85
2022/01/20 07:45:43;;;;;;;20.02;2.15;;;1.70;99.90;;;;;;6184758;23;20016;-84
2022/01/20 07:48:24;;;;;;;12.23;1.95;;;1.80;99.90;;;;;;6158912;23;20070;-86
2022/01/20 07:51:00;;;;;;;15.70;2.53;;;1.90;99.90;;;;;;6162032;23;20016;-87
2022/01/20 07:53:26;;;;;;;19.17;2.28;;;1.90;99.90;;;;;;6180664;23;20008;-89
2022/01/20 07:55:52;;;;;;;17.20;1.90;;;2.00;99.90;;;;;;6182860;23;20456;-85
2022/01/20 07:58:27;;;;;;;15.95;2.30;;;1.90;99.90;;;;;;6182923;23;20093;-87
2022/01/20 08:01:00;;;;;;;15.20;2.15;;;1.90;99.90;;;;;;6182489;23;20477;-89
2022/01/20 08:03:26;;;;;;;15.55;2.38;;;1.90;99.90;;;;;;6158908;23;20054;-87
2022/01/20 08:05:58;;;;;;;18.00;2.88;;;1.80;99.90;;;;;;6157788;23;20022;-86
2022/01/20 08:08:24;;;;;;;15.85;2.30;;;1.80;99.90;;;;;;6181904;23;20017;-85
2022/01/20 08:10:53;;;;;;;18.23;3.35;;;1.80;99.90;;;;;;6181522;23;20016;-88
2022/01/20 08:13:36;;;;;;;19.23;3.85;;;1.80;99.90;;;;;;6159364;23;20012;-87
2022/01/20 08:16:05;;;;;;;;;;;1.90;99.90;;;;;;6157457;23;20044;-87
2022/01/20 08:18:31;;;;;;;16.73;2.30;;;1.90;99.90;;;;;;6188217;23;19920;-84
2022/01/20 08:20:56;;;;;;;18.10;2.13;;;2.00;99.90;;;;;;6186171;23;20094;-86
2022/01/20 08:23:22;;;;;;;10.48;2.05;;;2.10;99.90;;;;;;6208247;23;20024;-85
2022/01/20 08:25:59;;;;;;;10.45;1.42;;;2.00;99.90;;;;;;6182777;23;20096;-88
2022/01/20 08:28:25;;;;;;;11.82;1.65;;;2.00;99.90;;;;;;6161572;23;20066;-85
2022/01/20 08:30:52;;;;;;;18.70;1.92;;;2.00;99.90;;;;;;6157113;23;20437;-85
2022/01/20 08:41:42;;;;;;;14.23;2.90;;;2.00;99.90;;;;;;6225383;23;20042;-87
2022/01/20 08:44:23;;;;;;;22.60;2.83;;;2.10;99.90;;;;;;6087466;23;20025;-88
2022/01/20 08:46:58;;;;;;;15.82;2.22;;;2.00;99.90;;;;;;6209695;23;20388;-86
2022/01/20 08:50:28;;;;;;;15.40;2.22;;;2.00;99.90;;;;;;6184040;23;20058;-87
2022/01/20 08:56:12;;;;;;;21.08;2.60;;;1.80;99.90;;;;;;6116207;23;20032;-86
2022/01/20 08:58:42;;;;;;;25.15;3.65;;;1.80;99.90;;;;;;6154871;23;20079;-85
2022/01/20 09:01:08;;;;;;;23.65;3.00;;;1.90;99.90;;;;;;6184717;23;20027;-87
2022/01/20 09:03:37;;;;;;;25.33;2.83;;;1.90;99.90;;;;;;6183186;23;20062;-86
2022/01/20 09:06:03;;;;;;;16.85;2.88;;;1.90;99.90;;;;;;6184296;23;20016;-85
2022/01/20 09:08:29;;;;;;;19.10;2.92;;;2.00;99.90;;;;;;6183617;23;20020;-86
2022/01/20 09:10:56;;;;;;;21.95;2.50;;;2.00;99.90;;;;;;6182475;23;20389;-85
2022/01/20 09:16:52;;;;;;;12.05;2.08;;;2.20;99.90;;;;;;6246546;22;20050;-86
2022/01/20 09:19:23;;;;;;;13.57;1.98;;;2.40;99.90;;;;;;6216999;22;20018;-85
2022/01/20 09:22:09;;;;;;;8.60;1.50;;;2.60;99.90;;;;;;6189477;23;20043;-85
2022/01/20 09:24:46;;;;;;;19.17;1.70;;;2.70;99.90;;;;;;6209238;22;20023;-84
2022/01/20 09:27:19;;;;;;;14.85;2.13;;;2.80;99.90;;;;;;6161931;23;20634;-87
2022/01/20 09:29:48;;;;;;;13.98;1.92;;;2.80;99.90;;;;;;6183558;23;20095;-85
2022/01/20 09:32:16;;;;;;;13.90;1.60;;;2.60;99.90;;;;;;6185287;23;20526;-85
2022/01/20 09:34:52;;;;;;;17.27;2.03;;;2.60;99.90;;;;;;6187212;23;20019;-84
2022/01/20 09:37:21;;;;;;;13.02;1.83;;;2.60;99.90;;;;;;6183407;23;20008;-85
2022/01/20 09:39:56;;;;;;;10.02;1.88;;;2.60;99.90;;;;;;6184193;23;20541;-88
2022/01/20 09:42:25;;;;;;;13.55;1.52;;;2.60;99.90;;;;;;6157117;23;20049;-85
2022/01/20 09:45:06;;;;;;;13.50;1.83;;;2.70;99.90;;;;;;6184462;23;20046;-85
2022/01/20 09:47:37;;;;;;;9.63;1.23;;;2.80;99.90;;;;;;6185838;23;20016;-86
2022/01/20 09:50:04;;;;;;;12.10;1.38;;;3.00;99.90;;;;;;6184092;23;20060;-85
2022/01/20 09:52:39;;;;;;;9.07;1.60;;;3.00;99.90;;;;;;6182306;23;20019;-85
2022/01/20 09:55:21;;;;;;;16.35;1.95;;;3.00;99.90;;;;;;6185367;23;20008;-86
2022/01/20 09:57:47;;;;;;;16.25;1.65;;;3.00;99.90;;;;;;6184804;23;20020;-83
2022/01/20 10:00:18;;;;;;;9.23;1.67;;;3.00;99.90;;;;;;6159473;23;20024;-85
2022/01/20 10:03:06;;;;;;;10.68;1.38;;;3.00;99.90;;;;;;6209457;23;20027;-85
2022/01/20 10:05:48;;;;;;;12.15;1.83;;;3.00;99.90;;;;;;6183213;23;20023;-84
2022/01/20 10:08:23;;;;;;;;;;;3.00;99.90;;;;;;6183267;23;20159;-86
2022/01/20 10:10:56;;;;;;;13.68;2.38;;;2.90;99.90;;;;;;6208902;23;19926;-85
2022/01/20 10:13:43;;;;;;;14.00;1.80;;;2.80;99.90;;;;;;6183226;23;20407;-86
2022/01/20 10:16:14;;;;;;;21.90;2.83;;;2.80;99.90;;;;;;6183970;23;20085;-83
2022/01/20 10:18:55;;;;;;;21.88;1.80;;;2.80;99.90;;;;;;6182156;23;20356;-83
2022/01/20 10:21:28;;;;;;;17.77;2.25;;;2.70;99.90;;;;;;6171529;23;20019;-85
2022/01/20 10:24:04;;;;;;;16.50;2.65;;;2.90;99.90;;;;;;6208013;23;20012;-83
2022/01/20 10:26:40;;;;;;;12.20;2.15;;;3.00;99.90;;;;;;6210278;23;20015;-82
2022/01/20 10:29:15;;;;;;;20.63;2.60;;;3.10;99.90;;;;;;6207129;23;20476;-86
2022/01/20 10:31:46;;;;;;;16.52;2.45;;;3.10;99.90;;;;;;6210159;23;20046;-85
2022/01/20 10:34:37;;;;;;;22.48;2.60;;;3.20;99.90;;;;;;6207760;23;20087;-85
2022/01/20 10:37:18;;;;;;;18.55;2.65;;;3.30;99.90;;;;;;6208552;23;20441;-84
2022/01/20 10:39:52;;;;;;;16.98;2.25;;;3.40;99.90;;;;;;6209944;23;20360;-84
2022/01/20 10:42:23;;;;;;;12.75;1.92;;;3.60;99.90;;;;;;6207331;23;20016;-87
2022/01/20 10:44:50;;;;;;;17.23;1.85;;;3.70;99.90;;;;;;6183257;23;20024;-85
2022/01/20 10:47:22;;;;;;;18.20;2.40;;;3.80;99.90;;;;;;6211357;23;20018;-83
2022/01/20 10:49:55;;;;;;;18.17;2.50;;;3.80;99.90;;;;;;6186006;23;20009;-87
2022/01/20 10:52:56;;;;;;;13.18;1.90;;;3.80;99.90;;;;;;6185775;23;20090;-85
2022/01/20 10:55:25;;;;;;;22.33;2.83;;;3.80;99.90;;;;;;6210297;23;20012;-87
2022/01/20 10:58:22;;;;;;;14.75;2.65;;;3.80;99.90;;;;;;6210215;23;20044;-84
2022/01/20 11:00:51;;;;;;;22.50;2.75;;;3.90;99.90;;;;;;6210849;23;20023;-86
2022/01/20 11:03:30;;;;;;;19.05;2.17;;;4.00;99.90;;;;;;6210291;23;20024;-85
2022/01/20 11:05:58;;;;;;;12.23;2.03;;;4.10;99.90;;;;;;6209078;23;20453;-82
2022/01/20 11:08:27;;;;;;;17.38;1.98;;;4.10;99.90;;;;;;6185420;23;20062;-87
2022/01/20 11:10:54;;;;;;;16.02;2.53;;;4.10;99.90;;;;;;6162987;23;20047;-84
2022/01/20 11:13:27;;;;;;;11.95;1.90;;;4.00;99.90;;;;;;6158153;23;20356;-85
2022/01/20 11:16:03;;;;;;;13.20;1.98;;;3.90;99.90;;;;;;6179555;23;20017;-86
2022/01/20 11:18:33;;;;;;;17.75;2.10;;;3.80;99.90;;;;;;6183220;23;20020;-89
2022/01/20 11:21:01;;;;;;;14.27;1.83;;;3.90;99.90;;;;;;6154417;23;20257;-86
2022/01/20 11:24:02;;;;;;;12.38;2.42;;;3.90;99.90;;;;;;6157366;23;20023;-84
2022/01/20 11:26:34;;;;;;;15.40;2.08;;;3.90;99.90;;;;;;6139600;23;20024;-85
2022/01/20 11:29:01;;;;;;;18.88;2.03;;;4.00;99.90;;;;;;6126512;23;20397;-87
2022/01/20 11:31:39;;;;;;;20.73;2.00;;;4.00;99.90;;;;;;6151224;23;20016;-84
2022/01/20 11:34:27;;;;;;;15.93;1.80;;;4.10;99.90;;;;;;6126100;23;20058;-88
2022/01/20 11:36:53;;;;;;;17.13;1.83;;;4.30;99.90;;;;;;6150393;23;20013;-88
2022/01/20 11:39:25;;;;;;;13.80;1.65;;;4.40;99.90;;;;;;6150185;23;20172;-87
2022/01/20 11:41:57;;;;;;;19.23;2.22;;;4.40;99.90;;;;;;6148592;23;20352;-88
2022/01/20 11:44:33;;;;;;;16.63;2.08;;;4.30;99.90;;;;;;6123946;23;20021;-85
2022/01/20 11:47:13;;;;;;;15.30;1.92;;;4.30;99.90;;;;;;6150958;23;20072;-85
2022/01/20 11:50:04;;;;;;;16.55;2.40;;;4.00;99.90;;;;;;6126560;23;20017;-86
2022/01/20 11:52:30;;;;;;;19.13;2.20;;;3.80;99.90;;;;;;6145230;23;20013;-85
2022/01/20 11:55:09;;;;;;;19.88;2.92;;;3.70;99.90;;;;;;6117365;23;20148;-86
2022/01/20 11:57:35;;;;;;;22.02;2.47;;;3.70;99.90;;;;;;6147465;23;20386;-86
2022/01/20 12:00:22;;;;;;;13.52;2.25;;;3.60;99.90;;;;;;6123875;23;20021;-87
2022/01/20 12:02:52;;;;;;;15.38;2.63;;;3.70;99.90;;;;;;6150721;23;20099;-86
2022/01/20 12:05:31;;;;;;;23.25;2.65;;;4.00;99.90;;;;;;6131088;23;20016;-85
2022/01/20 12:08:15;;;;;;;13.73;1.83;;;4.10;99.90;;;;;;6130047;23;20528;-85
2022/01/20 12:10:45;;;;;;;8.80;1.67;;;4.00;99.90;;;;;;6154415;23;20100;-86
2022/01/20 12:13:32;;;;;;;14.45;1.50;;;3.80;99.90;;;;;;6131857;23;20017;-87
2022/01/20 12:16:03;;;;;;;8.85;2.00;;;3.50;99.90;;;;;;6174218;23;20079;-85
2022/01/20 12:18:38;;;;;;;13.50;1.20;;;3.30;99.90;;;;;;6128355;23;20048;-89
2022/01/20 12:21:08;;;;;;;8.77;1.17;;;3.10;99.90;;;;;;6124411;23;20016;-87
2022/01/20 12:23:45;;;;;;;7.70;1.40;;;3.00;99.90;;;;;;6125039;23;20408;-87
2022/01/20 12:26:15;;;;;;;7.78;1.02;;;3.00;99.90;;;;;;6149669;23;20092;-87
2022/01/20 12:28:41;;;;;;;9.23;1.38;;;3.10;99.90;;;;;;6150759;23;20024;-85
2022/01/20 12:31:21;;;;;;;13.68;1.80;;;3.30;99.90;;;;;;6149729;23;20454;-86
2022/01/20 12:33:54;;;;;;;10.85;1.33;;;3.70;99.90;;;;;;6126898;23;20509;-88
2022/01/20 12:36:31;;;;;;;12.60;1.15;;;3.90;99.90;;;;;;6149900;23;20264;-87
2022/01/20 12:38:57;;;;;;;12.65;1.80;;;3.90;99.90;;;;;;6174328;23;20298;-85
2022/01/20 12:47:41;;;;;;;12.55;2.15;;;4.00;99.90;;;;;;6173137;23;20044;-86
2022/01/20 12:50:10;;;;;;;14.98;1.98;;;4.20;99.90;;;;;;6126410;23;20013;-87
2022/01/20 12:53:06;;;;;;;;;;;;;;;;;;;;;
2022/01/20 12:55:35;;;;;;;18.20;2.33;;;4.70;99.90;;;;;;6153630;23;20013;-88
2022/01/20 13:01:43;;;;;;;13.95;1.90;;;5.00;99.90;;;;;;6157788;23;20023;-90
2022/01/20 13:04:30;;;;;;;18.98;2.03;;;4.80;99.90;;;;;;6150626;23;20016;-89
2022/01/20 13:07:17;;;;;;;16.48;2.50;;;4.50;99.90;;;;;;6175814;23;20012;-87
2022/01/20 13:10:31;;;;;;;24.20;2.30;;;4.30;99.90;;;;;;6172242;23;20306;-88
2022/01/20 13:13:00;;;;;;;18.77;2.63;;;4.30;99.90;;;;;;6146668;23;20016;-85
2022/01/20 13:24:46;;;;;;;25.90;2.70;;;4.50;99.90;;;;;;6278177;22;20041;-88
2022/01/20 13:27:16;;;;;;;18.17;2.50;;;4.40;99.90;;;;;;6248339;22;20317;-88
2022/01/20 13:30:30;;;;;;;19.15;2.80;;;4.30;99.90;;;;;;6242805;22;20394;-85
2022/01/20 13:33:30;;;;;;;25.95;2.85;;;4.20;99.90;;;;;;6199252;22;20325;-87
2022/01/20 13:36:03;;;;;;;20.60;2.95;;;4.20;99.90;;;;;;6219312;22;20028;-89
2022/01/20 13:38:48;;;;;;;16.08;2.42;;;4.20;99.90;;;;;;6194778;22;20467;-88
2022/01/20 13:41:31;;;;;;;17.63;2.67;;;4.20;99.90;;;;;;6241865;22;20438;-86
2022/01/20 13:47:25;;;;;;;22.00;2.70;;;4.10;99.90;;;;;;6268822;22;20034;-87
2022/01/20 13:49:58;;;;;;;14.75;2.50;;;4.00;99.90;;;;;;6140654;22;20076;-87
2022/01/20 13:52:24;;;;;;;15.40;2.10;;;3.80;99.90;;;;;;6240720;22;20019;-86
2022/01/20 13:54:55;;;;;;;9.48;1.48;;;3.80;99.90;;;;;;6215486;22;20026;-87
2022/01/20 13:57:23;;;;;;;9.82;1.00;;;3.80;99.90;;;;;;6243936;22;20524;-88
2022/01/20 14:00:10;;;;;;;7.28;1.60;;;3.80;99.90;;;;;;6263226;22;20026;-86
2022/01/20 14:02:39;;;;;;;9.60;2.03;;;3.90;99.90;;;;;;6242134;22;20011;-86
2022/01/20 14:05:05;;;;;;;9.57;1.58;;;3.90;99.90;;;;;;6244059;22;20482;-86
2022/01/20 14:07:36;;;;;;;10.15;1.38;;;3.90;99.90;;;;;;6244612;22;20049;-87
2022/01/20 14:10:32;;;;;;;8.80;1.15;;;3.90;99.90;;;;;;6244203;22;20214;-86
2022/01/20 14:13:05;;;;;;;7.72;1.63;;;3.70;99.90;;;;;;6166790;22;20100;-87
2022/01/20 14:16:06;;;;;;;8.93;1.30;;;3.60;99.90;;;;;;6196453;22;20015;-86
2022/01/20 14:18:41;;;;;;;9.25;1.30;;;3.50;99.90;;;;;;6246959;22;20018;-89
2022/01/20 14:22:15;;;;;;;;;;;;;;;;;;;;;
2022/01/20 14:27:57;;;;;;;14.80;1.90;;;3.40;99.90;;;;;;6293643;22;20043;-85
2022/01/20 14:30:39;;;;;;;;;;;;;;;;;;;;;
2022/01/20 14:33:08;;;;;;;9.55;2.00;;;3.50;99.90;;;;;;6266728;22;20062;-87
2022/01/20 14:35:40;;;;;;;13.27;1.65;;;3.40;99.90;;;;;;6246105;22;20072;-85
2022/01/20 14:38:38;;;;;;;15.32;1.80;;;3.40;99.90;;;;;;6218415;22;20441;-85
2022/01/20 14:41:07;;;;;;;14.90;1.90;;;3.40;99.90;;;;;;6136486;22;20477;-84
2022/01/20 14:43:33;;;;;;;12.15;2.47;;;3.50;99.90;;;;;;6241970;22;20011;-86
2022/01/20 14:49:22;;;;;;;15.82;2.10;;;3.50;99.90;;;;;;6243968;22;20306;-87
2022/01/20 14:51:51;;;;;;;19.98;2.75;;;3.40;99.90;;;;;;6240687;22;20342;-87
2022/01/20 14:54:56;;;;;;;16.15;1.80;;;3.40;99.90;;;;;;6244872;22;20011;-86
2022/01/20 15:01:26;;;;;;;13.02;2.40;;;3.40;99.90;;;;;;6256083;22;20076;-88
2022/01/20 15:04:02;;;;;;;13.05;2.13;;;3.30;99.90;;;;;;6243686;22;20631;-88
2022/01/20 15:06:38;;;;;;;13.50;1.73;;;3.40;99.90;;;;;;6217459;22;20071;-87
2022/01/20 15:09:13;;;;;;;17.77;1.50;;;3.50;99.90;;;;;;6216968;22;20491;-87
2022/01/20 15:11:58;;;;;;;8.13;1.50;;;3.40;99.90;;;;;;6242130;22;20018;-86
2022/01/20 15:14:39;;;;;;;12.73;1.92;;;3.40;99.90;;;;;;6242070;22;20015;-88
2022/01/20 15:17:06;;;;;;;13.45;1.95;;;3.30;99.90;;;;;;6221300;22;20050;-86
2022/01/20 15:20:03;;;;;;;17.67;2.65;;;3.40;99.90;;;;;;6268176;22;20019;-87
2022/01/20 15:22:37;;;;;;;15.23;1.75;;;3.40;99.90;;;;;;6203609;22;20527;-87
2022/01/20 15:25:12;;;;;;;14.40;1.42;;;3.40;99.90;;;;;;6222209;22;20015;-86
2022/01/20 15:28:21;;;;;;;20.85;2.67;;;3.50;99.90;;;;;;6244710;22;20041;-88
2022/01/20 15:31:17;;;;;;;16.42;2.42;;;3.40;99.90;;;;;;6243481;22;20323;-86
2022/01/20 15:33:58;;;;;;;14.35;2.40;;;3.30;99.90;;;;;;6243873;22;20065;-88
2022/01/20 15:40:57;;;;;;;19.52;2.80;;;3.20;99.90;;;;;;6204941;23;20024;-88
2022/01/20 15:43:23;;;;;;;18.45;2.53;;;3.10;99.90;;;;;;6177766;23;20381;-85
2022/01/20 15:56:17;;;;;;;19.40;2.50;;;2.90;99.90;;;;;;6238024;22;20018;-85
2022/01/20 15:59:06;;;;;;;16.95;2.20;;;2.80;99.90;;;;;;6183686;23;20348;-86
2022/01/20 16:01:38;;;;;;;18.83;2.63;;;2.80;99.90;;;;;;6207255;23;20074;-85
2022/01/20 16:04:09;;;;;;;23.75;2.70;;;2.80;99.90;;;;;;6182688;23;20054;-89
2022/01/20 16:06:38;;;;;;;19.42;2.38;;;2.70;99.90;;;;;;6209564;23;20475;-86
2022/01/20 16:09:08;;;;;;;19.70;3.45;;;2.70;99.90;;;;;;6184928;23;20016;-87
2022/01/20 16:16:06;;;;;;;17.60;2.58;;;2.90;99.90;;;;;;6221397;22;20074;-87
2022/01/20 16:19:07;;;;;;;;;;;;;;;;;;;;;
2022/01/20 16:26:40;;;;;;;;;;;;;;;;;;;;;
2022/01/20 16:29:37;;;;;;;20.10;2.67;;;2.80;99.90;;;;;;5903121;24;20021;-87
2022/01/20 16:32:16;;;;;;;22.98;2.25;;;2.80;99.90;;;;;;5950398;23;20082;-89
2022/01/20 16:40:28;;;;;;;20.67;2.30;;;2.80;99.90;;;;;;6264004;22;20023;-84
2022/01/20 16:42:56;;;;;;;14.73;2.10;;;2.90;99.90;;;;;;6237648;22;20016;-85
2022/01/20 16:45:28;;;;;;;18.90;3.10;;;2.90;99.90;;;;;;6231903;22;20479;-85
2022/01/20 16:48:04;;;;;;;17.27;1.98;;;2.90;99.90;;;;;;6206188;23;20020;-86
2022/01/20 16:50:39;;;;;;;17.27;2.88;;;2.80;99.90;;;;;;6183030;23;20012;-87
2022/01/20 16:53:34;;;;;;;20.05;2.92;;;2.70;99.90;;;;;;6181485;23;20012;-87
2022/01/20 16:56:04;;;;;;;13.98;2.70;;;2.70;99.90;;;;;;6178899;23;20031;-86
2022/01/20 16:58:51;;;;;;;13.43;1.65;;;2.50;99.90;;;;;;6153396;23;20016;-87
2022/01/20 17:04:46;;;;;;;15.38;1.80;;;2.40;99.90;;;;;;6153279;23;20012;-86
2022/01/20 17:07:33;;;;;;;23.55;2.80;;;2.30;99.90;;;;;;6128911;23;20016;-86
2022/01/20 17:09:59;;;;;;;13.85;1.83;;;2.20;99.90;;;;;;6129033;23;20405;-85